Time;durP1;ratioP1;P1;durP2;ratioP2;P2;SDS_P1;SDS_P2;PMS_P1;PMS_P2;Temp;Humidity;BMP_temperature;BMP_pressure;BME280_temperature;BME280_humidity;BME280_pressure;Samples;Min_cycle;Max_cycle;Signal;HPM_P1;HPM_P2
2021/09/28 00:00:12;;;;;;;4.47;1.33;;;13.00;99.90;;;;;;5134300;27;20107;-77
2021/09/28 00:02:38;;;;;;;5.82;1.33;;;13.10;99.90;;;;;;5134208;27;20019;-74
2021/09/28 00:05:04;;;;;;;5.70;1.40;;;13.00;99.90;;;;;;5100035;27;20161;-74
2021/09/28 00:07:30;;;;;;;7.57;1.92;;;13.00;99.90;;;;;;5116500;27;20465;-72
2021/09/28 00:09:55;;;;;;;6.07;1.30;;;13.00;99.90;;;;;;5116515;27;20058;-72
2021/09/28 00:12:21;;;;;;;3.67;1.05;;;13.00;99.90;;;;;;5133677;27;20034;-70
2021/09/28 00:14:47;;;;;;;3.63;1.20;;;13.00;99.90;;;;;;5134315;27;20027;-75
2021/09/28 00:17:12;;;;;;;7.28;1.83;;;13.00;99.90;;;;;;5116699;27;20081;-72
2021/09/28 00:19:39;;;;;;;5.38;1.13;;;13.00;99.90;;;;;;5116575;27;20485;-71
2021/09/28 00:22:04;;;;;;;1.98;1.02;;;13.10;99.90;;;;;;5134143;27;20377;-78
2021/09/28 00:24:30;;;;;;;6.45;1.08;;;13.00;99.90;;;;;;5133576;27;20038;-74
2021/09/28 00:26:56;;;;;;;6.75;1.17;;;13.00;99.90;;;;;;5116549;27;20043;-73
2021/09/28 00:29:21;;;;;;;4.38;1.35;;;13.00;99.90;;;;;;5116388;27;20485;-75
2021/09/28 00:31:47;;;;;;;3.22;1.08;;;13.00;99.90;;;;;;5133499;27;20032;-71
2021/09/28 00:34:13;;;;;;;8.90;1.65;;;13.00;99.90;;;;;;5133588;27;20481;-76
2021/09/28 00:36:38;;;;;;;5.90;1.40;;;13.10;99.90;;;;;;5099305;27;20500;-71
2021/09/28 00:39:04;;;;;;;5.75;1.58;;;13.10;99.90;;;;;;5133443;27;20027;-71
2021/09/28 00:41:29;;;;;;;3.33;1.23;;;13.10;99.90;;;;;;5135277;27;20381;-74
2021/09/28 00:43:55;;;;;;;7.45;0.95;;;13.10;99.90;;;;;;5133607;27;20042;-71
2021/09/28 00:46:22;;;;;;;8.23;1.23;;;13.20;99.90;;;;;;5099121;27;20016;-74
2021/09/28 00:48:48;;;;;;;2.95;1.02;;;13.00;99.90;;;;;;5116201;27;20027;-72
2021/09/28 00:51:15;;;;;;;6.82;1.73;;;13.00;99.90;;;;;;5116116;27;20027;-71
2021/09/28 00:53:42;;;;;;;4.72;1.35;;;13.00;99.90;;;;;;5133709;27;20030;-73
2021/09/28 00:56:11;;;;;;;8.32;2.30;;;13.10;99.90;;;;;;5098872;27;20035;-73
2021/09/28 00:58:38;;;;;;;9.52;2.33;;;12.90;99.90;;;;;;5132941;27;20011;-71
2021/09/28 01:01:04;;;;;;;3.67;1.75;;;13.00;99.90;;;;;;5132714;27;20022;-71
2021/09/28 01:03:34;;;;;;;5.07;1.60;;;12.90;99.90;;;;;;5115774;28;20031;-72
2021/09/28 01:06:00;;;;;;;5.10;2.33;;;12.90;99.90;;;;;;5132957;27;20098;-73
2021/09/28 01:08:27;;;;;;;9.38;1.67;;;12.80;99.90;;;;;;5098468;27;20385;-72
2021/09/28 01:10:53;;;;;;;4.00;1.70;;;12.80;99.90;;;;;;5115845;28;20031;-73
2021/09/28 01:13:20;;;;;;;4.65;1.40;;;12.80;99.90;;;;;;5132825;28;20019;-75
2021/09/28 01:16:05;;;;;;;7.65;1.45;;;12.70;99.90;;;;;;5132907;28;20034;-72
2021/09/28 01:18:32;;;;;;;6.72;1.83;;;12.70;99.90;;;;;;5132859;28;20520;-73
2021/09/28 01:20:59;;;;;;;7.68;2.38;;;12.70;99.90;;;;;;5115676;28;20473;-73
2021/09/28 01:23:25;;;;;;;7.35;1.60;;;12.70;99.90;;;;;;5115561;28;20121;-74
2021/09/28 01:25:51;;;;;;;3.80;2.35;;;12.60;99.90;;;;;;5118671;27;20050;-72
2021/09/28 01:28:16;;;;;;;12.48;2.60;;;12.60;99.90;;;;;;5119626;27;20030;-77
2021/09/28 01:30:42;;;;;;;8.32;2.15;;;12.70;99.90;;;;;;5136927;27;20422;-71
2021/09/28 01:33:09;;;;;;;15.23;2.25;;;12.60;99.90;;;;;;5136569;27;20027;-72
2021/09/28 01:35:37;;;;;;;12.05;2.30;;;12.60;99.90;;;;;;5136642;27;20034;-72
2021/09/28 01:38:03;;;;;;;8.93;2.15;;;12.60;99.90;;;;;;5136727;27;20384;-73
2021/09/28 01:40:29;;;;;;;8.25;2.08;;;12.60;99.90;;;;;;5119442;27;20016;-76
2021/09/28 01:42:54;;;;;;;10.88;2.90;;;12.60;99.90;;;;;;5136690;27;20440;-73
2021/09/28 01:45:20;;;;;;;6.72;2.20;;;12.70;99.90;;;;;;5137729;27;20092;-71
2021/09/28 01:47:46;;;;;;;12.63;3.45;;;12.60;99.90;;;;;;5136425;27;20477;-72
2021/09/28 01:50:12;;;;;;;10.98;3.22;;;12.60;99.90;;;;;;5137443;27;20038;-73
2021/09/28 01:52:37;;;;;;;8.52;2.55;;;12.60;99.90;;;;;;5102309;27;20053;-72
2021/09/28 01:55:07;;;;;;;12.00;3.45;;;12.60;99.90;;;;;;5136440;27;20034;-73
2021/09/28 01:57:33;;;;;;;8.27;2.30;;;12.50;99.90;;;;;;5136325;27;20027;-72
2021/09/28 02:00:03;;;;;;;9.88;3.13;;;12.50;99.90;;;;;;5102649;27;20019;-73
2021/09/28 02:02:29;;;;;;;9.05;2.38;;;12.50;99.90;;;;;;5119199;27;20114;-73
2021/09/28 02:04:54;;;;;;;10.30;2.83;;;12.40;99.90;;;;;;5119144;27;20050;-72
2021/09/28 02:07:20;;;;;;;7.43;2.40;;;12.40;99.90;;;;;;5119633;27;20039;-72
2021/09/28 02:09:45;;;;;;;11.48;3.00;;;12.40;99.90;;;;;;5136274;27;20173;-71
2021/09/28 02:12:11;;;;;;;7.53;2.20;;;12.40;99.90;;;;;;5137582;27;20023;-72
2021/09/28 02:14:36;;;;;;;15.13;2.67;;;12.30;99.90;;;;;;5118879;27;20035;-72
2021/09/28 02:17:02;;;;;;;9.90;2.75;;;12.30;99.90;;;;;;5102130;27;20120;-72
2021/09/28 02:19:28;;;;;;;8.82;2.40;;;12.30;99.90;;;;;;5119133;27;20499;-72
2021/09/28 02:21:53;;;;;;;11.00;3.67;;;12.20;99.90;;;;;;5101927;27;20026;-72
2021/09/28 02:24:20;;;;;;;7.82;2.20;;;12.20;99.90;;;;;;5136047;27;20110;-73
2021/09/28 02:26:46;;;;;;;19.65;4.28;;;12.10;99.90;;;;;;5102144;27;20019;-72
2021/09/28 02:29:13;;;;;;;11.95;3.17;;;12.10;99.90;;;;;;5118319;27;20599;-70
2021/09/28 02:31:39;;;;;;;12.50;3.40;;;12.10;99.90;;;;;;5135489;27;20071;-72
2021/09/28 02:34:07;;;;;;;16.20;3.78;;;12.10;99.90;;;;;;5118373;27;20408;-74
2021/09/28 02:36:33;;;;;;;12.43;3.00;;;12.00;99.90;;;;;;5134806;27;20020;-75
2021/09/28 02:38:59;;;;;;;14.15;3.60;;;12.00;99.90;;;;;;5118262;27;20065;-73
2021/09/28 02:41:25;;;;;;;13.80;2.72;;;12.00;99.90;;;;;;5118719;27;20400;-73
2021/09/28 02:43:51;;;;;;;12.10;3.40;;;11.90;99.90;;;;;;5118275;27;20027;-73
2021/09/28 02:46:16;;;;;;;26.85;4.68;;;11.90;99.90;;;;;;5135417;27;20366;-71
2021/09/28 02:48:42;;;;;;;7.80;2.05;;;11.90;99.90;;;;;;5135471;27;20111;-72
2021/09/28 02:51:07;;;;;;;9.55;2.67;;;11.90;99.90;;;;;;5135401;27;20500;-74
2021/09/28 02:53:33;;;;;;;13.75;2.33;;;11.90;99.90;;;;;;5118216;27;20019;-71
2021/09/28 02:55:59;;;;;;;10.45;3.30;;;11.90;99.90;;;;;;5135201;27;20023;-74
2021/09/28 02:58:24;;;;;;;11.63;2.30;;;11.90;99.90;;;;;;5118181;27;20473;-73
2021/09/28 03:00:50;;;;;;;9.70;3.00;;;11.80;99.90;;;;;;5135504;27;20039;-73
2021/09/28 03:03:16;;;;;;;9.82;1.85;;;11.80;99.90;;;;;;5135182;27;20072;-73
2021/09/28 03:05:41;;;;;;;7.45;4.22;;;11.80;99.90;;;;;;5135222;27;20106;-73
2021/09/28 03:08:07;;;;;;;13.40;3.75;;;11.80;99.90;;;;;;5136736;27;20031;-73
2021/09/28 03:10:32;;;;;;;10.52;2.42;;;11.70;99.90;;;;;;5136333;27;20051;-73
2021/09/28 03:12:58;;;;;;;11.13;2.30;;;11.70;99.90;;;;;;5118306;27;20380;-73
2021/09/28 03:15:24;;;;;;;17.77;3.78;;;11.70;99.90;;;;;;5118372;27;20019;-71
2021/09/28 03:17:49;;;;;;;12.38;3.00;;;11.70;99.90;;;;;;5136671;27;20027;-71
2021/09/28 03:20:15;;;;;;;9.80;3.10;;;11.70;99.90;;;;;;5142942;27;20023;-72
2021/09/28 03:22:41;;;;;;;12.32;2.42;;;11.70;99.90;;;;;;5153231;27;20499;-73
2021/09/28 03:25:06;;;;;;;13.50;2.53;;;11.70;99.90;;;;;;5148725;27;20099;-71
2021/09/28 03:27:32;;;;;;;14.70;3.40;;;11.60;99.90;;;;;;5136085;27;20023;-71
2021/09/28 03:29:58;;;;;;;11.95;2.58;;;11.60;99.90;;;;;;5102180;27;20035;-73
2021/09/28 03:32:23;;;;;;;18.65;3.67;;;11.60;99.90;;;;;;5135439;27;20019;-75
2021/09/28 03:34:49;;;;;;;13.20;2.70;;;11.60;99.90;;;;;;5117541;27;20416;-80
2021/09/28 03:37:14;;;;;;;5.63;2.17;;;11.60;99.90;;;;;;5136208;27;20365;-77
2021/09/28 03:39:40;;;;;;;10.95;2.30;;;11.50;99.90;;;;;;5134530;27;20023;-72
2021/09/28 03:42:06;;;;;;;14.30;3.97;;;11.50;99.90;;;;;;5117436;27;20030;-79
2021/09/28 03:44:31;;;;;;;10.30;4.45;;;11.60;99.90;;;;;;5117343;27;20052;-74
2021/09/28 03:46:57;;;;;;;16.10;3.08;;;11.50;99.90;;;;;;5117383;27;20110;-77
2021/09/28 03:49:22;;;;;;;8.63;2.30;;;11.50;99.90;;;;;;5115970;27;20031;-73
2021/09/28 03:51:48;;;;;;;8.35;2.70;;;11.50;99.90;;;;;;5133995;27;20389;-78
2021/09/28 03:54:14;;;;;;;9.43;3.45;;;11.60;99.90;;;;;;5099931;27;20027;-76
2021/09/28 03:56:39;;;;;;;13.98;2.85;;;11.50;99.90;;;;;;5116520;27;20016;-73
2021/09/28 03:59:05;;;;;;;13.88;2.63;;;11.60;99.90;;;;;;5133981;27;20546;-79
2021/09/28 04:01:31;;;;;;;12.63;2.90;;;11.60;99.90;;;;;;5116688;27;20054;-78
2021/09/28 04:03:56;;;;;;;13.68;2.70;;;11.60;99.90;;;;;;5116949;27;20029;-72
2021/09/28 04:06:22;;;;;;;10.43;2.92;;;11.60;99.90;;;;;;5133948;27;20020;-72
2021/09/28 04:08:48;;;;;;;7.90;2.55;;;11.60;99.90;;;;;;5099384;27;20108;-73
2021/09/28 04:11:13;;;;;;;10.50;3.22;;;11.60;99.90;;;;;;5134831;27;20111;-73
2021/09/28 04:13:41;;;;;;;7.38;3.00;;;11.50;99.90;;;;;;5116303;27;20023;-72
2021/09/28 04:16:08;;;;;;;7.03;2.22;;;11.50;99.90;;;;;;5134889;27;20031;-72
2021/09/28 04:18:34;;;;;;;12.95;3.45;;;11.40;99.90;;;;;;5133585;27;20035;-72
2021/09/28 04:20:59;;;;;;;12.27;3.00;;;11.40;99.90;;;;;;5133286;27;20034;-72
2021/09/28 04:23:25;;;;;;;20.67;3.13;;;11.40;99.90;;;;;;5116054;27;20052;-71
2021/09/28 04:25:51;;;;;;;10.15;3.17;;;11.40;99.90;;;;;;5116106;27;20015;-71
2021/09/28 04:28:16;;;;;;;20.63;2.65;;;11.40;99.90;;;;;;5116216;27;20027;-72
2021/09/28 04:30:42;;;;;;;9.52;2.67;;;11.40;99.90;;;;;;5133631;27;20469;-71
2021/09/28 04:33:08;;;;;;;11.15;2.58;;;11.30;99.90;;;;;;5133748;27;20060;-73
2021/09/28 04:35:33;;;;;;;10.30;3.08;;;11.40;99.90;;;;;;5133464;27;20367;-72
2021/09/28 04:37:59;;;;;;;13.00;4.00;;;11.30;99.90;;;;;;5133807;27;20027;-71
2021/09/28 04:40:25;;;;;;;7.63;2.50;;;11.30;99.90;;;;;;5133471;27;20034;-74
2021/09/28 04:42:51;;;;;;;14.90;3.28;;;11.30;99.90;;;;;;5116040;27;20069;-73
2021/09/28 04:45:17;;;;;;;12.10;3.15;;;11.30;99.90;;;;;;5116105;27;20023;-73
2021/09/28 04:47:43;;;;;;;14.27;4.28;;;11.30;99.90;;;;;;5132910;27;20038;-73
2021/09/28 04:50:09;;;;;;;10.55;3.58;;;11.30;99.90;;;;;;5115731;27;20032;-72
2021/09/28 04:52:36;;;;;;;12.48;3.22;;;11.30;99.90;;;;;;5099003;27;20518;-73
2021/09/28 04:55:03;;;;;;;11.90;3.45;;;11.30;99.90;;;;;;5115990;27;20072;-75
2021/09/28 04:57:29;;;;;;;14.85;3.00;;;11.30;99.90;;;;;;5115671;27;20103;-71
2021/09/28 04:59:54;;;;;;;13.40;3.35;;;11.30;99.90;;;;;;5132664;27;20051;-70
2021/09/28 05:02:20;;;;;;;9.98;4.35;;;11.30;99.90;;;;;;5132957;27;20495;-71
2021/09/28 05:04:45;;;;;;;6.57;2.88;;;11.30;99.90;;;;;;5115639;27;20035;-73
2021/09/28 05:07:11;;;;;;;10.43;3.10;;;11.30;99.90;;;;;;5098704;27;20114;-74
2021/09/28 05:09:37;;;;;;;11.43;4.22;;;11.30;99.90;;;;;;5115427;28;20422;-72
2021/09/28 05:12:05;;;;;;;10.88;3.60;;;11.30;99.90;;;;;;5132960;27;20130;-71
2021/09/28 05:14:31;;;;;;;14.52;2.53;;;11.30;99.90;;;;;;5115518;28;20096;-71
2021/09/28 05:16:57;;;;;;;25.70;3.78;;;11.30;99.90;;;;;;5115678;28;20385;-74
2021/09/28 05:19:23;;;;;;;13.38;3.75;;;11.30;99.90;;;;;;5132831;28;20087;-75
2021/09/28 05:21:48;;;;;;;9.15;3.20;;;11.30;99.90;;;;;;5132659;28;20068;-72
2021/09/28 05:24:14;;;;;;;14.55;3.15;;;11.30;99.90;;;;;;5115718;28;20028;-73
2021/09/28 05:26:39;;;;;;;7.18;3.80;;;11.30;99.90;;;;;;5132885;28;20486;-74
2021/09/28 05:29:05;;;;;;;10.25;3.63;;;11.30;99.90;;;;;;5115410;28;20091;-72
2021/09/28 05:31:31;;;;;;;11.13;3.67;;;11.30;99.90;;;;;;5132552;28;20087;-71
2021/09/28 05:33:57;;;;;;;11.25;2.65;;;11.30;99.90;;;;;;5115411;28;20027;-71
2021/09/28 05:36:23;;;;;;;9.82;2.30;;;11.30;99.90;;;;;;5115783;28;20043;-71
2021/09/28 05:38:49;;;;;;;8.38;2.40;;;11.30;99.90;;;;;;5132536;28;20378;-71
2021/09/28 05:41:14;;;;;;;10.65;2.72;;;11.40;99.90;;;;;;5132227;27;20026;-72
2021/09/28 05:43:40;;;;;;;11.35;2.67;;;11.40;99.90;;;;;;5115199;28;20047;-69
2021/09/28 05:46:06;;;;;;;8.70;2.80;;;11.30;99.90;;;;;;5132325;27;20510;-74
2021/09/28 05:48:32;;;;;;;16.50;3.40;;;11.30;99.90;;;;;;5132301;28;20019;-71
2021/09/28 05:50:57;;;;;;;8.88;2.35;;;11.30;99.90;;;;;;5115079;28;20520;-72
2021/09/28 05:53:25;;;;;;;14.40;3.17;;;11.30;99.90;;;;;;5115332;28;20112;-74
2021/09/28 05:55:50;;;;;;;11.05;2.95;;;11.30;99.90;;;;;;5133876;27;20092;-74
2021/09/28 05:58:16;;;;;;;10.02;2.50;;;11.40;99.90;;;;;;5115296;28;20477;-73
2021/09/28 06:00:42;;;;;;;6.45;2.97;;;11.40;99.90;;;;;;5115158;28;20031;-74
2021/09/28 06:03:07;;;;;;;10.40;2.17;;;11.40;99.90;;;;;;5133448;27;20477;-72
2021/09/28 06:05:34;;;;;;;5.47;2.00;;;11.60;99.90;;;;;;5132584;28;20016;-73
2021/09/28 06:08:00;;;;;;;12.88;3.15;;;11.60;99.90;;;;;;5115580;28;20030;-72
2021/09/28 06:10:26;;;;;;;11.90;2.13;;;11.80;99.90;;;;;;5115041;28;20051;-72
2021/09/28 06:12:51;;;;;;;10.50;3.38;;;11.80;99.90;;;;;;5117889;27;20031;-75
2021/09/28 06:15:17;;;;;;;9.88;2.10;;;12.00;99.90;;;;;;5119080;27;20031;-74
2021/09/28 06:17:42;;;;;;;8.90;2.47;;;12.20;99.90;;;;;;5118969;27;20098;-72
2021/09/28 06:20:09;;;;;;;13.18;2.10;;;12.40;99.90;;;;;;5136283;27;20058;-73
2021/09/28 06:22:35;;;;;;;13.63;2.90;;;12.40;99.90;;;;;;5136350;27;20015;-72
2021/09/28 06:25:01;;;;;;;9.00;2.83;;;12.40;99.90;;;;;;5101698;27;20027;-74
2021/09/28 06:27:27;;;;;;;13.18;2.63;;;12.60;99.90;;;;;;5102015;27;20230;-72
2021/09/28 06:29:53;;;;;;;13.15;2.58;;;13.00;99.90;;;;;;5118591;27;20032;-71
2021/09/28 06:32:19;;;;;;;11.57;3.03;;;13.40;99.90;;;;;;5136799;27;20095;-73
2021/09/28 06:34:47;;;;;;;8.73;3.25;;;14.00;99.90;;;;;;5118672;27;20027;-72
2021/09/28 06:37:13;;;;;;;13.07;2.78;;;14.70;99.90;;;;;;5118471;27;20026;-71
2021/09/28 06:39:39;;;;;;;6.63;2.38;;;15.20;99.90;;;;;;5136983;27;20031;-73
2021/09/28 06:42:05;;;;;;;8.50;2.58;;;15.90;99.90;;;;;;5102210;27;20019;-73
2021/09/28 06:44:30;;;;;;;11.35;4.03;;;16.70;99.90;;;;;;5118810;27;20038;-71
2021/09/28 06:46:56;;;;;;;10.02;1.90;;;17.40;99.90;;;;;;5135422;27;20019;-73
2021/09/28 06:49:22;;;;;;;5.63;1.42;;;18.10;99.90;;;;;;5135495;27;20442;-74
2021/09/28 06:51:48;;;;;;;10.27;2.63;;;18.70;99.90;;;;;;5135157;27;20027;-73
2021/09/28 06:54:13;;;;;;;4.90;1.80;;;19.50;99.90;;;;;;5135520;27;20422;-73
2021/09/28 06:56:40;;;;;;;10.25;1.80;;;20.30;99.90;;;;;;5135386;27;20117;-73
2021/09/28 06:59:08;;;;;;;11.38;2.30;;;20.90;99.90;;;;;;5135630;27;20068;-73
2021/09/28 07:01:43;;;;;;;8.15;2.20;;;21.50;99.90;;;;;;5136019;27;20139;-72
2021/09/28 07:04:08;;;;;;;13.00;2.70;;;22.00;99.90;;;;;;5118509;27;20118;-75
2021/09/28 07:06:34;;;;;;;5.72;1.40;;;22.40;99.90;;;;;;5136726;27;20047;-75
2021/09/28 07:09:00;;;;;;;10.95;2.30;;;22.80;99.90;;;;;;5138213;27;20159;-76
2021/09/28 07:11:26;;;;;;;6.43;1.50;;;23.20;99.90;;;;;;5148147;27;20027;-74
2021/09/28 07:13:52;;;;;;;6.15;1.83;;;23.60;99.90;;;;;;5148398;27;20034;-77
2021/09/28 07:16:18;;;;;;;8.65;1.90;;;24.20;99.20;;;;;;5135691;27;20037;-76
2021/09/28 07:18:43;;;;;;;8.48;1.98;;;24.20;98.10;;;;;;5132802;27;20025;-77
2021/09/28 07:21:10;;;;;;;5.93;2.00;;;24.60;97.80;;;;;;5149483;27;20054;-74
2021/09/28 07:23:37;;;;;;;9.00;1.65;;;25.10;97.30;;;;;;5107332;27;20031;-74
2021/09/28 07:26:04;;;;;;;9.93;2.08;;;25.50;97.00;;;;;;5137720;27;20015;-74
2021/09/28 07:28:30;;;;;;;10.35;2.38;;;26.30;96.30;;;;;;5137617;27;20030;-76
2021/09/28 07:30:56;;;;;;;8.30;2.30;;;26.80;95.70;;;;;;5136772;27;20057;-75
2021/09/28 07:33:22;;;;;;;5.82;1.65;;;26.70;94.10;;;;;;5118050;27;20059;-74
2021/09/28 07:35:47;;;;;;;8.63;2.53;;;26.20;94.70;;;;;;5135013;27;20031;-76
2021/09/28 07:38:14;;;;;;;10.55;2.92;;;25.30;95.00;;;;;;5136817;27;20041;-74
2021/09/28 07:40:43;;;;;;;6.25;1.70;;;24.30;96.20;;;;;;5135083;27;20057;-75
2021/09/28 07:43:09;;;;;;;6.88;1.70;;;23.30;97.40;;;;;;5134576;27;20023;-73
2021/09/28 07:45:34;;;;;;;8.93;2.30;;;22.50;99.00;;;;;;5134943;27;20058;-75
2021/09/28 07:48:00;;;;;;;6.88;2.28;;;22.50;99.40;;;;;;5134872;27;20054;-75
2021/09/28 07:50:26;;;;;;;5.88;2.17;;;23.10;99.20;;;;;;5134896;27;20039;-74
2021/09/28 07:52:52;;;;;;;10.90;2.60;;;23.90;98.50;;;;;;5117424;27;20118;-74
2021/09/28 07:55:17;;;;;;;7.82;1.77;;;24.70;97.20;;;;;;5134568;27;20023;-79
2021/09/28 07:57:44;;;;;;;6.07;2.33;;;25.40;96.10;;;;;;5117544;27;20015;-76
2021/09/28 08:00:10;;;;;;;11.77;2.00;;;26.20;96.30;;;;;;5134770;27;20042;-75
2021/09/28 08:02:40;;;;;;;9.50;2.15;;;27.10;94.50;;;;;;5117295;27;20377;-73
2021/09/28 08:05:07;;;;;;;9.80;2.08;;;27.90;94.00;;;;;;5135368;27;20162;-74
2021/09/28 08:07:33;;;;;;;7.47;1.80;;;28.70;93.30;;;;;;5134835;27;20038;-73
2021/09/28 08:09:59;;;;;;;4.82;2.08;;;29.00;92.60;;;;;;5117117;27;20043;-77
2021/09/28 08:12:25;;;;;;;8.68;2.45;;;28.70;92.30;;;;;;5134306;27;20103;-75
2021/09/28 08:14:50;;;;;;;3.72;1.60;;;28.80;92.60;;;;;;5133969;27;20038;-76
2021/09/28 08:17:16;;;;;;;7.78;2.30;;;29.10;92.60;;;;;;5134721;27;20023;-77
2021/09/28 08:19:43;;;;;;;8.77;2.50;;;29.20;91.30;;;;;;5134083;27;20020;-76
2021/09/28 08:22:11;;;;;;;8.57;2.50;;;28.60;91.80;;;;;;5135499;27;20046;-74
2021/09/28 08:24:42;;;;;;;9.95;2.13;;;27.50;92.00;;;;;;5116729;27;20106;-79
2021/09/28 08:29:55;;;;;;;8.88;2.47;;;25.70;94.20;;;;;;5134703;27;20484;-78
2021/09/28 08:32:21;;;;;;;11.60;2.13;;;25.00;95.00;;;;;;5099878;27;20047;-73
2021/09/28 08:34:46;;;;;;;8.90;1.83;;;24.50;95.40;;;;;;5132910;27;20057;-78
2021/09/28 08:37:13;;;;;;;6.13;1.55;;;24.10;95.70;;;;;;5134393;27;20060;-75
2021/09/28 08:39:39;;;;;;;10.35;2.30;;;23.70;96.30;;;;;;5134795;27;20027;-76
2021/09/28 08:42:05;;;;;;;9.40;2.25;;;23.30;96.80;;;;;;5134029;27;20026;-73
2021/09/28 08:44:30;;;;;;;9.27;1.70;;;23.00;97.20;;;;;;5133582;27;20047;-74
2021/09/28 08:46:56;;;;;;;13.18;2.60;;;22.70;97.40;;;;;;5135742;27;20023;-75
2021/09/28 08:49:22;;;;;;;8.20;2.15;;;22.40;98.00;;;;;;5117578;27;20036;-75
2021/09/28 08:51:49;;;;;;;8.65;1.70;;;22.10;99.00;;;;;;5116605;27;20090;-75
2021/09/28 08:54:15;;;;;;;10.77;2.20;;;22.10;99.40;;;;;;5116436;27;20019;-74
2021/09/28 08:56:41;;;;;;;10.90;2.30;;;22.10;99.10;;;;;;5099236;27;20172;-74
2021/09/28 08:59:07;;;;;;;9.07;2.17;;;22.10;98.90;;;;;;5134868;27;20059;-81
2021/09/28 09:01:35;;;;;;;13.77;3.00;;;22.40;99.00;;;;;;5117183;27;20080;-76
2021/09/28 09:04:15;;;;;;;6.78;2.20;;;22.50;98.70;;;;;;5134784;27;20194;-73
2021/09/28 09:06:41;;;;;;;9.60;2.20;;;22.70;99.20;;;;;;5133591;27;20051;-80
2021/09/28 09:09:06;;;;;;;8.60;1.80;;;22.90;98.50;;;;;;5116879;28;20442;-80
2021/09/28 09:11:40;;;;;;;10.50;2.53;;;23.10;98.50;;;;;;5133360;27;20027;-74
2021/09/28 09:14:21;;;;;;;9.77;1.98;;;23.30;98.00;;;;;;5115939;28;20034;-80
2021/09/28 09:16:49;;;;;;;5.80;1.60;;;23.80;98.30;;;;;;5115729;28;20491;-75
2021/09/28 09:19:29;;;;;;;7.50;1.75;;;24.40;97.40;;;;;;5133098;28;20469;-76
2021/09/28 09:21:59;;;;;;;9.75;2.28;;;25.20;96.60;;;;;;5133006;27;20058;-74
2021/09/28 09:24:44;;;;;;;7.80;1.80;;;26.90;96.00;;;;;;5133026;28;20030;-78
2021/09/28 09:27:29;;;;;;;7.97;2.45;;;28.80;94.40;;;;;;5132748;28;20478;-76
2021/09/28 09:30:21;;;;;;;8.18;2.10;;;30.20;92.80;;;;;;5133798;27;20035;-79
2021/09/28 09:32:55;;;;;;;6.10;1.92;;;31.40;90.00;;;;;;5116243;28;20027;-82
2021/09/28 09:35:28;;;;;;;10.93;2.17;;;31.80;90.00;;;;;;5133648;28;20047;-74
2021/09/28 09:38:11;;;;;;;4.00;2.08;;;32.00;88.30;;;;;;5133251;28;20023;-77
2021/09/28 09:40:40;;;;;;;8.60;2.13;;;32.20;87.60;;;;;;5116909;28;20038;-73
2021/09/28 09:43:07;;;;;;;9.13;3.45;;;31.90;86.30;;;;;;5115370;28;20446;-74
2021/09/28 09:45:32;;;;;;;8.27;1.70;;;31.50;87.90;;;;;;5115625;27;20030;-74
2021/09/28 09:47:58;;;;;;;7.75;1.38;;;31.50;86.30;;;;;;5119443;27;20023;-74
2021/09/28 09:50:24;;;;;;;9.60;2.45;;;31.60;86.10;;;;;;5119452;27;20035;-73
2021/09/28 09:52:59;;;;;;;8.80;2.00;;;31.50;86.40;;;;;;5136917;27;20106;-74
2021/09/28 09:55:31;;;;;;;14.50;2.28;;;31.70;85.60;;;;;;5136625;27;20061;-76
2021/09/28 09:57:57;;;;;;;6.85;1.98;;;31.90;84.20;;;;;;5136557;27;20047;-73
2021/09/28 10:00:23;;;;;;;5.57;1.55;;;31.60;84.40;;;;;;5119480;27;20019;-78
2021/09/28 10:02:49;;;;;;;8.95;2.40;;;31.50;85.50;;;;;;5137739;27;20023;-73
2021/09/28 10:05:15;;;;;;;6.85;2.10;;;31.00;84.10;;;;;;5137699;27;20023;-77
2021/09/28 10:07:41;;;;;;;7.72;2.13;;;31.00;86.10;;;;;;5136463;27;20117;-80
2021/09/28 10:10:08;;;;;;;9.70;2.47;;;31.10;86.70;;;;;;5136131;27;20051;-76
2021/09/28 10:12:38;;;;;;;9.25;2.50;;;30.70;83.80;;;;;;5119184;27;20469;-71
2021/09/28 10:15:08;;;;;;;12.20;2.47;;;29.90;84.60;;;;;;5119069;27;20051;-72
2021/09/28 10:17:44;;;;;;;9.25;2.45;;;29.20;86.60;;;;;;5137683;27;20027;-77
2021/09/28 10:20:24;;;;;;;12.60;2.70;;;28.50;87.20;;;;;;5136634;27;20015;-74
2021/09/28 10:23:15;;;;;;;10.00;2.17;;;27.80;88.00;;;;;;5137138;27;20023;-74
2021/09/28 10:25:45;;;;;;;14.75;2.88;;;27.00;90.40;;;;;;5136144;27;20031;-78
2021/09/28 10:28:10;;;;;;;9.38;2.03;;;26.10;90.30;;;;;;5119279;27;20023;-75
2021/09/28 10:30:39;;;;;;;5.05;1.70;;;25.40;91.70;;;;;;5137328;27;20065;-72
2021/09/28 10:33:11;;;;;;;9.52;1.42;;;24.80;91.50;;;;;;5118652;27;20038;-75
2021/09/28 10:36:13;;;;;;;8.75;1.60;;;24.30;92.50;;;;;;5137251;27;20027;-74
2021/09/28 10:38:46;;;;;;;6.97;1.38;;;24.00;92.90;;;;;;5136971;27;20047;-75
2021/09/28 10:41:45;;;;;;;6.78;1.85;;;23.80;92.70;;;;;;5135748;27;20023;-78
2021/09/28 10:44:41;;;;;;;10.75;1.40;;;23.60;93.50;;;;;;5118749;27;20038;-72
2021/09/28 10:47:08;;;;;;;8.43;1.42;;;23.70;93.90;;;;;;5137397;27;20015;-74
2021/09/28 10:49:37;;;;;;;9.10;2.35;;;23.80;93.50;;;;;;5135801;27;20110;-71
2021/09/28 10:52:21;;;;;;;6.90;1.40;;;23.80;92.90;;;;;;5118765;27;20079;-74
2021/09/28 10:55:12;;;;;;;5.30;1.25;;;23.80;93.90;;;;;;5137209;27;20026;-73
2021/09/28 10:57:57;;;;;;;5.90;1.40;;;24.00;93.30;;;;;;5136485;27;20488;-72
2021/09/28 11:00:42;;;;;;;8.25;1.27;;;24.00;92.50;;;;;;5136751;27;20019;-71
2021/09/28 11:03:09;;;;;;;11.95;1.20;;;23.80;92.30;;;;;;5134505;27;20081;-72
2021/09/28 11:05:37;;;;;;;7.28;1.52;;;23.70;93.20;;;;;;5119728;27;20047;-73
2021/09/28 11:08:04;;;;;;;6.88;1.40;;;23.50;92.60;;;;;;5138843;27;20034;-73
2021/09/28 11:10:30;;;;;;;9.20;2.08;;;23.40;92.60;;;;;;5125812;27;20052;-73
2021/09/28 11:12:56;;;;;;;7.78;1.70;;;23.40;93.10;;;;;;5141137;27;20381;-71
2021/09/28 11:15:26;;;;;;;5.47;1.20;;;23.00;92.50;;;;;;5122417;27;20015;-70
2021/09/28 11:17:52;;;;;;;4.82;1.23;;;22.70;93.20;;;;;;5119593;27;20030;-70
2021/09/28 11:20:25;;;;;;;9.32;2.00;;;22.40;93.30;;;;;;5102629;27;20027;-72
2021/09/28 11:22:59;;;;;;;8.45;1.40;;;22.10;94.10;;;;;;5136105;27;20030;-74
2021/09/28 11:25:26;;;;;;;7.70;1.73;;;22.00;94.50;;;;;;5135373;27;20462;-74
2021/09/28 11:28:11;;;;;;;8.88;1.30;;;21.90;94.50;;;;;;5118279;27;20507;-71
2021/09/28 11:30:39;;;;;;;11.35;1.75;;;21.80;93.60;;;;;;5135165;27;20061;-71
2021/09/28 11:33:07;;;;;;;6.93;1.38;;;21.70;94.70;;;;;;5117866;27;20103;-73
2021/09/28 11:35:34;;;;;;;7.05;1.20;;;21.70;94.20;;;;;;5134711;27;20023;-73
2021/09/28 11:38:02;;;;;;;6.20;1.40;;;21.80;94.30;;;;;;5117862;27;20047;-70
2021/09/28 11:40:35;;;;;;;5.40;0.95;;;21.80;93.60;;;;;;5134922;27;20012;-73
2021/09/28 11:43:22;;;;;;;8.07;1.10;;;21.80;93.60;;;;;;5135075;27;20038;-72
2021/09/28 11:46:10;;;;;;;10.32;1.73;;;21.70;93.60;;;;;;5134311;27;20023;-71
2021/09/28 11:48:37;;;;;;;6.05;1.65;;;21.60;94.00;;;;;;5134267;27;20023;-73
2021/09/28 11:51:23;;;;;;;8.27;1.60;;;21.60;93.60;;;;;;5135699;27;20471;-72
2021/09/28 11:53:49;;;;;;;6.03;2.20;;;21.80;93.60;;;;;;5118380;27;20020;-72
2021/09/28 11:56:16;;;;;;;8.27;1.48;;;21.80;93.40;;;;;;5135161;27;20076;-75
2021/09/28 11:58:42;;;;;;;11.07;2.88;;;21.90;93.90;;;;;;5117085;27;20023;-71
2021/09/28 12:01:08;;;;;;;4.68;1.42;;;22.20;94.00;;;;;;5116907;27;20027;-71
2021/09/28 12:03:40;;;;;;;6.00;2.03;;;22.40;93.30;;;;;;5135289;27;20019;-70
2021/09/28 12:06:18;;;;;;;2.47;0.98;;;22.50;93.30;;;;;;5133867;27;20118;-72
2021/09/28 12:08:46;;;;;;;5.95;1.33;;;22.60;92.70;;;;;;5118198;27;20019;-70
2021/09/28 12:11:12;;;;;;;7.53;1.42;;;22.70;92.40;;;;;;5133607;27;20376;-72
2021/09/28 12:13:46;;;;;;;6.20;2.17;;;22.80;92.50;;;;;;5134005;27;20024;-72
2021/09/28 12:16:15;;;;;;;7.00;1.83;;;22.90;92.70;;;;;;5134033;27;20023;-73
2021/09/28 12:18:41;;;;;;;7.47;1.55;;;23.00;92.10;;;;;;5116932;27;20015;-71
2021/09/28 12:21:19;;;;;;;7.15;1.40;;;23.00;91.70;;;;;;5116499;27;20098;-69
2021/09/28 12:23:47;;;;;;;5.55;1.65;;;22.90;92.10;;;;;;5133727;27;20019;-69
2021/09/28 12:26:27;;;;;;;5.68;1.50;;;23.00;92.00;;;;;;5134641;27;20027;-71
2021/09/28 12:28:55;;;;;;;5.20;1.20;;;23.00;91.40;;;;;;5116448;27;20027;-71
2021/09/28 12:31:35;;;;;;;8.05;2.08;;;23.00;92.20;;;;;;5133878;27;20029;-71
2021/09/28 12:34:01;;;;;;;4.68;1.40;;;23.10;91.60;;;;;;5116639;27;20572;-72
2021/09/28 12:36:27;;;;;;;6.35;1.38;;;23.10;91.40;;;;;;5133744;27;20129;-72
2021/09/28 12:39:16;;;;;;;4.78;1.63;;;23.20;91.60;;;;;;5133724;27;20051;-75
2021/09/28 12:42:17;;;;;;;6.28;1.48;;;23.20;91.80;;;;;;5115748;27;20411;-71
2021/09/28 12:44:43;;;;;;;6.00;1.40;;;23.40;91.10;;;;;;5134253;27;20038;-74
2021/09/28 12:47:22;;;;;;;3.75;1.35;;;23.40;91.00;;;;;;5099141;27;20396;-70
2021/09/28 12:49:48;;;;;;;4.32;1.08;;;23.40;90.20;;;;;;5133260;27;20174;-70